sensor_id;sensor_type;location;lat;lon;timestamp;P1;durP1;ratioP1;P2;durP2;ratioP2
74741;SDS011;76291;48.288;16.314;2024-03-22T00:00:18;13.7;;;12.1;;
74741;SDS011;76291;48.288;16.314;2024-03-22T00:01:18;13.7;;;12.1;;
74741;SDS011;76291;48.288;16.314;2024-03-22T00:02:21;13.7;;;12.1;;
74741;SDS011;76291;48.288;16.314;2024-03-22T00:03:18;13.7;;;12.1;;
74741;SDS011;76291;48.288;16.314;2024-03-22T00:04:18;15.0;;;12.1;;
74741;SDS011;76291;48.288;16.314;2024-03-22T00:05:18;15.0;;;12.1;;
74741;SDS011;76291;48.288;16.314;2024-03-22T00:06:18;15.0;;;12.1;;
74741;SDS011;76291;48.288;16.314;2024-03-22T00:07:18;15.0;;;12.1;;
74741;SDS011;76291;48.288;16.314;2024-03-22T00:08:18;15.0;;;12.1;;
74741;SDS011;76291;48.288;16.314;2024-03-22T00:09:18;14.9;;;12.6;;
74741;SDS011;76291;48.288;16.314;2024-03-22T00:10:18;14.9;;;12.6;;
74741;SDS011;76291;48.288;16.314;2024-03-22T00:11:18;14.9;;;12.6;;
74741;SDS011;76291;48.288;16.314;2024-03-22T00:12:18;14.9;;;12.6;;
74741;SDS011;76291;48.288;16.314;2024-03-22T00:13:18;14.9;;;12.6;;
74741;SDS011;76291;48.288;16.314;2024-03-22T00:14:18;12.9;;;11.5;;
74741;SDS011;76291;48.288;16.314;2024-03-22T00:15:18;12.9;;;11.5;;
74741;SDS011;76291;48.288;16.314;2024-03-22T00:16:18;12.9;;;11.5;;
74741;SDS011;76291;48.288;16.314;2024-03-22T00:17:18;12.9;;;11.5;;
74741;SDS011;76291;48.288;16.314;2024-03-22T00:18:17;12.9;;;11.5;;
74741;SDS011;76291;48.288;16.314;2024-03-22T00:19:17;16.1;;;12.8;;
74741;SDS011;76291;48.288;16.314;2024-03-22T00:20:17;16.1;;;12.8;;
74741;SDS011;76291;48.288;16.314;2024-03-22T00:21:17;16.1;;;12.8;;
74741;SDS011;76291;48.288;16.314;2024-03-22T00:22:17;16.1;;;12.8;;
74741;SDS011;76291;48.288;16.314;2024-03-22T00:23:18;16.1;;;12.8;;
74741;SDS011;76291;48.288;16.314;2024-03-22T00:24:17;14.4;;;12.5;;
74741;SDS011;76291;48.288;16.314;2024-03-22T00:26:00;14.4;;;12.5;;
74741;SDS011;76291;48.288;16.314;2024-03-22T00:27:00;14.4;;;12.5;;
74741;SDS011;76291;48.288;16.314;2024-03-22T00:28:00;14.4;;;12.5;;
74741;SDS011;76291;48.288;16.314;2024-03-22T00:29:00;14.4;;;12.5;;
74741;SDS011;76291;48.288;16.314;2024-03-22T00:30:00;13.6;;;12.2;;
74741;SDS011;76291;48.288;16.314;2024-03-22T00:31:00;13.6;;;12.2;;
74741;SDS011;76291;48.288;16.314;2024-03-22T00:32:00;13.6;;;12.2;;
74741;SDS011;76291;48.288;16.314;2024-03-22T00:33:00;13.6;;;12.2;;
74741;SDS011;76291;48.288;16.314;2024-03-22T00:34:00;13.6;;;12.2;;
74741;SDS011;76291;48.288;16.314;2024-03-22T00:35:00;15.0;;;13.0;;
74741;SDS011;76291;48.288;16.314;2024-03-22T00:36:00;15.0;;;13.0;;
74741;SDS011;76291;48.288;16.314;2024-03-22T00:37:00;15.0;;;13.0;;
74741;SDS011;76291;48.288;16.314;2024-03-22T00:38:00;15.0;;;13.0;;
74741;SDS011;76291;48.288;16.314;2024-03-22T00:39:00;15.0;;;13.0;;
74741;SDS011;76291;48.288;16.314;2024-03-22T00:40:00;15.5;;;13.2;;
74741;SDS011;76291;48.288;16.314;2024-03-22T00:41:00;15.5;;;13.2;;
74741;SDS011;76291;48.288;16.314;2024-03-22T00:42:00;15.5;;;13.2;;
74741;SDS011;76291;48.288;16.314;2024-03-22T00:43:00;15.5;;;13.2;;
74741;SDS011;76291;48.288;16.314;2024-03-22T00:44:00;15.5;;;13.2;;
74741;SDS011;76291;48.288;16.314;2024-03-22T00:45:00;14.3;;;12.8;;
74741;SDS011;76291;48.288;16.314;2024-03-22T00:46:00;14.3;;;12.8;;
74741;SDS011;76291;48.288;16.314;2024-03-22T00:46:59;14.3;;;12.8;;
74741;SDS011;76291;48.288;16.314;2024-03-22T00:47:59;14.3;;;12.8;;
74741;SDS011;76291;48.288;16.314;2024-03-22T00:48:59;14.3;;;12.8;;
74741;SDS011;76291;48.288;16.314;2024-03-22T00:49:59;15.9;;;14.2;;
74741;SDS011;76291;48.288;16.314;2024-03-22T00:50:59;15.9;;;14.2;;
74741;SDS011;76291;48.288;16.314;2024-03-22T00:51:59;15.9;;;14.2;;
74741;SDS011;76291;48.288;16.314;2024-03-22T00:52:59;15.9;;;14.2;;
74741;SDS011;76291;48.288;16.314;2024-03-22T00:53:59;15.9;;;14.2;;
74741;SDS011;76291;48.288;16.314;2024-03-22T00:54:59;16.2;;;13.7;;
74741;SDS011;76291;48.288;16.314;2024-03-22T00:55:59;16.2;;;13.7;;
74741;SDS011;76291;48.288;16.314;2024-03-22T00:56:59;16.2;;;13.7;;
74741;SDS011;76291;48.288;16.314;2024-03-22T00:58:00;16.2;;;13.7;;
74741;SDS011;76291;48.288;16.314;2024-03-22T00:58:59;16.2;;;13.7;;
74741;SDS011;76291;48.288;16.314;2024-03-22T00:59:59;16.8;;;14.7;;
74741;SDS011;76291;48.288;16.314;2024-03-22T01:00:59;16.8;;;14.7;;
74741;SDS011;76291;48.288;16.314;2024-03-22T01:01:59;16.8;;;14.7;;
74741;SDS011;76291;48.288;16.314;2024-03-22T01:02:59;16.8;;;14.7;;
74741;SDS011;76291;48.288;16.314;2024-03-22T01:03:59;16.8;;;14.7;;
74741;SDS011;76291;48.288;16.314;2024-03-22T01:04:59;17.5;;;14.8;;
74741;SDS011;76291;48.288;16.314;2024-03-22T01:05:59;17.5;;;14.8;;
74741;SDS011;76291;48.288;16.314;2024-03-22T01:06:59;17.5;;;14.8;;
74741;SDS011;76291;48.288;16.314;2024-03-22T01:07:59;17.5;;;14.8;;
74741;SDS011;76291;48.288;16.314;2024-03-22T01:08:59;17.5;;;14.8;;
74741;SDS011;76291;48.288;16.314;2024-03-22T01:09:59;16.7;;;14.9;;
74741;SDS011;76291;48.288;16.314;2024-03-22T01:10:59;16.7;;;14.9;;
74741;SDS011;76291;48.288;16.314;2024-03-22T01:11:59;16.7;;;14.9;;
74741;SDS011;76291;48.288;16.314;2024-03-22T01:12:59;16.7;;;14.9;;
74741;SDS011;76291;48.288;16.314;2024-03-22T01:13:59;16.7;;;14.9;;
74741;SDS011;76291;48.288;16.314;2024-03-22T01:14:59;19.5;;;15.6;;
74741;SDS011;76291;48.288;16.314;2024-03-22T01:15:59;19.5;;;15.6;;
74741;SDS011;76291;48.288;16.314;2024-03-22T01:16:59;19.5;;;15.6;;
74741;SDS011;76291;48.288;16.314;2024-03-22T01:17:59;19.5;;;15.6;;
74741;SDS011;76291;48.288;16.314;2024-03-22T01:18:59;19.5;;;15.6;;
74741;SDS011;76291;48.288;16.314;2024-03-22T01:19:59;19.3;;;15.3;;
74741;SDS011;76291;48.288;16.314;2024-03-22T01:20:58;19.3;;;15.3;;
74741;SDS011;76291;48.288;16.314;2024-03-22T01:21:58;19.3;;;15.3;;
74741;SDS011;76291;48.288;16.314;2024-03-22T01:22:59;19.3;;;15.3;;
74741;SDS011;76291;48.288;16.314;2024-03-22T01:23:58;19.3;;;15.3;;
74741;SDS011;76291;48.288;16.314;2024-03-22T01:24:58;18.1;;;14.8;;
74741;SDS011;76291;48.288;16.314;2024-03-22T01:25:58;18.1;;;14.8;;
74741;SDS011;76291;48.288;16.314;2024-03-22T01:26:58;18.1;;;14.8;;
74741;SDS011;76291;48.288;16.314;2024-03-22T01:27:58;18.1;;;14.8;;
74741;SDS011;76291;48.288;16.314;2024-03-22T01:28:58;18.1;;;14.8;;
74741;SDS011;76291;48.288;16.314;2024-03-22T01:29:58;17.5;;;15.6;;
74741;SDS011;76291;48.288;16.314;2024-03-22T01:30:58;17.5;;;15.6;;
74741;SDS011;76291;48.288;16.314;2024-03-22T01:31:58;17.5;;;15.6;;
74741;SDS011;76291;48.288;16.314;2024-03-22T01:32:58;17.5;;;15.6;;
74741;SDS011;76291;48.288;16.314;2024-03-22T01:33:58;17.5;;;15.6;;
74741;SDS011;76291;48.288;16.314;2024-03-22T01:34:58;18.9;;;16.2;;
74741;SDS011;76291;48.288;16.314;2024-03-22T01:35:58;18.9;;;16.2;;
74741;SDS011;76291;48.288;16.314;2024-03-22T01:36:58;18.9;;;16.2;;
74741;SDS011;76291;48.288;16.314;2024-03-22T01:37:58;18.9;;;16.2;;
74741;SDS011;76291;48.288;16.314;2024-03-22T01:38:59;18.9;;;16.2;;
74741;SDS011;76291;48.288;16.314;2024-03-22T01:39:58;18.3;;;16.2;;
74741;SDS011;76291;48.288;16.314;2024-03-22T01:40:58;18.3;;;16.2;;
74741;SDS011;76291;48.288;16.314;2024-03-22T01:41:58;18.3;;;16.2;;
74741;SDS011;76291;48.288;16.314;2024-03-22T01:42:59;18.3;;;16.2;;
74741;SDS011;76291;48.288;16.314;2024-03-22T01:43:58;18.3;;;16.2;;
74741;SDS011;76291;48.288;16.314;2024-03-22T01:44:58;18.2;;;16.3;;
74741;SDS011;76291;48.288;16.314;2024-03-22T01:45:58;18.2;;;16.3;;
74741;SDS011;76291;48.288;16.314;2024-03-22T01:46:58;18.2;;;16.3;;
74741;SDS011;76291;48.288;16.314;2024-03-22T01:47:58;18.2;;;16.3;;
74741;SDS011;76291;48.288;16.314;2024-03-22T01:48:58;18.2;;;16.3;;
74741;SDS011;76291;48.288;16.314;2024-03-22T01:49:58;17.6;;;15.7;;
74741;SDS011;76291;48.288;16.314;2024-03-22T01:50:58;17.6;;;15.7;;
74741;SDS011;76291;48.288;16.314;2024-03-22T01:51:58;17.6;;;15.7;;
74741;SDS011;76291;48.288;16.314;2024-03-22T01:52:58;17.6;;;15.7;;
74741;SDS011;76291;48.288;16.314;2024-03-22T01:54:01;17.6;;;15.7;;
74741;SDS011;76291;48.288;16.314;2024-03-22T01:55:00;19.6;;;17.0;;
74741;SDS011;76291;48.288;16.314;2024-03-22T01:55:57;19.6;;;17.0;;
74741;SDS011;76291;48.288;16.314;2024-03-22T01:56:58;19.6;;;17.0;;
74741;SDS011;76291;48.288;16.314;2024-03-22T01:57:58;19.6;;;17.0;;
74741;SDS011;76291;48.288;16.314;2024-03-22T01:58:58;19.6;;;17.0;;
74741;SDS011;76291;48.288;16.314;2024-03-22T01:59:58;19.7;;;17.6;;
74741;SDS011;76291;48.288;16.314;2024-03-22T02:00:58;19.7;;;17.6;;
74741;SDS011;76291;48.288;16.314;2024-03-22T02:01:57;19.7;;;17.6;;
74741;SDS011;76291;48.288;16.314;2024-03-22T02:02:57;19.7;;;17.6;;
74741;SDS011;76291;48.288;16.314;2024-03-22T02:03:57;19.7;;;17.6;;
74741;SDS011;76291;48.288;16.314;2024-03-22T02:04:57;20.8;;;17.2;;
74741;SDS011;76291;48.288;16.314;2024-03-22T02:05:57;20.8;;;17.2;;
74741;SDS011;76291;48.288;16.314;2024-03-22T02:06:57;20.8;;;17.2;;
74741;SDS011;76291;48.288;16.314;2024-03-22T02:07:57;20.8;;;17.2;;
74741;SDS011;76291;48.288;16.314;2024-03-22T02:08:57;20.8;;;17.2;;
74741;SDS011;76291;48.288;16.314;2024-03-22T02:09:57;20.4;;;17.2;;
74741;SDS011;76291;48.288;16.314;2024-03-22T02:10:57;20.4;;;17.2;;
74741;SDS011;76291;48.288;16.314;2024-03-22T02:11:57;20.4;;;17.2;;
74741;SDS011;76291;48.288;16.314;2024-03-22T02:12:57;20.4;;;17.2;;
74741;SDS011;76291;48.288;16.314;2024-03-22T02:13:57;20.4;;;17.2;;
74741;SDS011;76291;48.288;16.314;2024-03-22T02:14:58;20.6;;;18.4;;
74741;SDS011;76291;48.288;16.314;2024-03-22T02:15:57;20.6;;;18.4;;
74741;SDS011;76291;48.288;16.314;2024-03-22T02:16:57;20.6;;;18.4;;
74741;SDS011;76291;48.288;16.314;2024-03-22T02:17:57;20.6;;;18.4;;
74741;SDS011;76291;48.288;16.314;2024-03-22T02:18:59;20.6;;;18.4;;
74741;SDS011;76291;48.288;16.314;2024-03-22T02:19:57;23.3;;;19.6;;
74741;SDS011;76291;48.288;16.314;2024-03-22T02:20:57;23.3;;;19.6;;
74741;SDS011;76291;48.288;16.314;2024-03-22T02:21:57;23.3;;;19.6;;
74741;SDS011;76291;48.288;16.314;2024-03-22T02:22:57;23.3;;;19.6;;
74741;SDS011;76291;48.288;16.314;2024-03-22T02:23:57;23.3;;;19.6;;
74741;SDS011;76291;48.288;16.314;2024-03-22T02:24:57;22.4;;;19.8;;
74741;SDS011;76291;48.288;16.314;2024-03-22T02:25:57;22.4;;;19.8;;
74741;SDS011;76291;48.288;16.314;2024-03-22T02:26:56;22.4;;;19.8;;
74741;SDS011;76291;48.288;16.314;2024-03-22T02:27:56;22.4;;;19.8;;
74741;SDS011;76291;48.288;16.314;2024-03-22T02:28:56;22.4;;;19.8;;
74741;SDS011;76291;48.288;16.314;2024-03-22T02:29:56;22.3;;;19.4;;
74741;SDS011;76291;48.288;16.314;2024-03-22T02:30:56;22.3;;;19.4;;
74741;SDS011;76291;48.288;16.314;2024-03-22T02:31:56;22.3;;;19.4;;
74741;SDS011;76291;48.288;16.314;2024-03-22T02:32:56;22.3;;;19.4;;
74741;SDS011;76291;48.288;16.314;2024-03-22T02:33:56;22.3;;;19.4;;
74741;SDS011;76291;48.288;16.314;2024-03-22T02:34:56;21.9;;;19.2;;
74741;SDS011;76291;48.288;16.314;2024-03-22T02:35:57;21.9;;;19.2;;
74741;SDS011;76291;48.288;16.314;2024-03-22T02:36:56;21.9;;;19.2;;
74741;SDS011;76291;48.288;16.314;2024-03-22T02:37:56;21.9;;;19.2;;
74741;SDS011;76291;48.288;16.314;2024-03-22T02:38:56;21.9;;;19.2;;
74741;SDS011;76291;48.288;16.314;2024-03-22T02:39:56;21.6;;;18.9;;
74741;SDS011;76291;48.288;16.314;2024-03-22T02:40:58;21.6;;;18.9;;
74741;SDS011;76291;48.288;16.314;2024-03-22T02:41:56;21.6;;;18.9;;
74741;SDS011;76291;48.288;16.314;2024-03-22T02:42:56;21.6;;;18.9;;
74741;SDS011;76291;48.288;16.314;2024-03-22T02:43:56;21.6;;;18.9;;
74741;SDS011;76291;48.288;16.314;2024-03-22T02:44:56;23.2;;;19.1;;
74741;SDS011;76291;48.288;16.314;2024-03-22T02:45:56;23.2;;;19.1;;
74741;SDS011;76291;48.288;16.314;2024-03-22T02:46:56;23.2;;;19.1;;
74741;SDS011;76291;48.288;16.314;2024-03-22T02:47:56;23.2;;;19.1;;
74741;SDS011;76291;48.288;16.314;2024-03-22T02:48:56;23.2;;;19.1;;
74741;SDS011;76291;48.288;16.314;2024-03-22T02:49:56;23.4;;;20.0;;
74741;SDS011;76291;48.288;16.314;2024-03-22T02:50:56;23.4;;;20.0;;
74741;SDS011;76291;48.288;16.314;2024-03-22T02:51:56;23.4;;;20.0;;
74741;SDS011;76291;48.288;16.314;2024-03-22T02:52:56;23.4;;;20.0;;
74741;SDS011;76291;48.288;16.314;2024-03-22T02:53:56;23.4;;;20.0;;
74741;SDS011;76291;48.288;16.314;2024-03-22T02:54:56;22.7;;;19.4;;
74741;SDS011;76291;48.288;16.314;2024-03-22T02:55:59;22.7;;;19.4;;
74741;SDS011;76291;48.288;16.314;2024-03-22T02:56:56;22.7;;;19.4;;
74741;SDS011;76291;48.288;16.314;2024-03-22T02:57:56;22.7;;;19.4;;
74741;SDS011;76291;48.288;16.314;2024-03-22T02:58:56;22.7;;;19.4;;
74741;SDS011;76291;48.288;16.314;2024-03-22T02:59:56;23.3;;;20.2;;
74741;SDS011;76291;48.288;16.314;2024-03-22T03:00:55;23.3;;;20.2;;
74741;SDS011;76291;48.288;16.314;2024-03-22T03:01:55;23.3;;;20.2;;
74741;SDS011;76291;48.288;16.314;2024-03-22T03:02:55;23.3;;;20.2;;
74741;SDS011;76291;48.288;16.314;2024-03-22T03:03:55;23.3;;;20.2;;
74741;SDS011;76291;48.288;16.314;2024-03-22T03:04:55;23.0;;;19.6;;
74741;SDS011;76291;48.288;16.314;2024-03-22T03:05:55;23.0;;;19.6;;
74741;SDS011;76291;48.288;16.314;2024-03-22T03:06:55;23.0;;;19.6;;
74741;SDS011;76291;48.288;16.314;2024-03-22T03:07:55;23.0;;;19.6;;
74741;SDS011;76291;48.288;16.314;2024-03-22T03:08:55;23.0;;;19.6;;
74741;SDS011;76291;48.288;16.314;2024-03-22T03:09:55;22.8;;;19.8;;
74741;SDS011;76291;48.288;16.314;2024-03-22T03:10:55;22.8;;;19.8;;
74741;SDS011;76291;48.288;16.314;2024-03-22T03:11:55;22.8;;;19.8;;
74741;SDS011;76291;48.288;16.314;2024-03-22T03:12:59;22.8;;;19.8;;
74741;SDS011;76291;48.288;16.314;2024-03-22T03:13:56;22.8;;;19.8;;
74741;SDS011;76291;48.288;16.314;2024-03-22T03:14:55;23.3;;;19.4;;
74741;SDS011;76291;48.288;16.314;2024-03-22T03:15:55;23.3;;;19.4;;
74741;SDS011;76291;48.288;16.314;2024-03-22T03:16:55;23.3;;;19.4;;
74741;SDS011;76291;48.288;16.314;2024-03-22T03:17:55;23.3;;;19.4;;
74741;SDS011;76291;48.288;16.314;2024-03-22T03:18:55;23.3;;;19.4;;
74741;SDS011;76291;48.288;16.314;2024-03-22T03:19:55;28.9;;;19.9;;
74741;SDS011;76291;48.288;16.314;2024-03-22T03:20:55;28.9;;;19.9;;
74741;SDS011;76291;48.288;16.314;2024-03-22T03:21:55;28.9;;;19.9;;
74741;SDS011;76291;48.288;16.314;2024-03-22T03:22:55;28.9;;;19.9;;
74741;SDS011;76291;48.288;16.314;2024-03-22T03:23:55;28.9;;;19.9;;
74741;SDS011;76291;48.288;16.314;2024-03-22T03:24:55;23.9;;;19.0;;
74741;SDS011;76291;48.288;16.314;2024-03-22T03:25:55;23.9;;;19.0;;
74741;SDS011;76291;48.288;16.314;2024-03-22T03:26:55;23.9;;;19.0;;
74741;SDS011;76291;48.288;16.314;2024-03-22T03:27:55;23.9;;;19.0;;
74741;SDS011;76291;48.288;16.314;2024-03-22T03:28:55;23.9;;;19.0;;
74741;SDS011;76291;48.288;16.314;2024-03-22T03:29:55;22.7;;;19.4;;
74741;SDS011;76291;48.288;16.314;2024-03-22T03:30:55;22.7;;;19.4;;
74741;SDS011;76291;48.288;16.314;2024-03-22T03:31:55;22.7;;;19.4;;
74741;SDS011;76291;48.288;16.314;2024-03-22T03:32:55;22.7;;;19.4;;
74741;SDS011;76291;48.288;16.314;2024-03-22T03:33:54;22.7;;;19.4;;
74741;SDS011;76291;48.288;16.314;2024-03-22T03:34:54;24.4;;;19.7;;
74741;SDS011;76291;48.288;16.314;2024-03-22T03:35:54;24.4;;;19.7;;
74741;SDS011;76291;48.288;16.314;2024-03-22T03:36:54;24.4;;;19.7;;
74741;SDS011;76291;48.288;16.314;2024-03-22T03:37:55;24.4;;;19.7;;
74741;SDS011;76291;48.288;16.314;2024-03-22T03:38:54;24.4;;;19.7;;
74741;SDS011;76291;48.288;16.314;2024-03-22T03:39:54;24.6;;;19.7;;
74741;SDS011;76291;48.288;16.314;2024-03-22T03:40:54;24.6;;;19.7;;
74741;SDS011;76291;48.288;16.314;2024-03-22T03:41:55;24.6;;;19.7;;
74741;SDS011;76291;48.288;16.314;2024-03-22T03:42:54;24.6;;;19.7;;
74741;SDS011;76291;48.288;16.314;2024-03-22T03:43:54;24.6;;;19.7;;
74741;SDS011;76291;48.288;16.314;2024-03-22T03:44:54;25.1;;;20.3;;
74741;SDS011;76291;48.288;16.314;2024-03-22T03:45:55;25.1;;;20.3;;
74741;SDS011;76291;48.288;16.314;2024-03-22T03:46:54;25.1;;;20.3;;
74741;SDS011;76291;48.288;16.314;2024-03-22T03:47:54;25.1;;;20.3;;
74741;SDS011;76291;48.288;16.314;2024-03-22T03:48:54;25.1;;;20.3;;
74741;SDS011;76291;48.288;16.314;2024-03-22T03:49:54;24.7;;;20.6;;
74741;SDS011;76291;48.288;16.314;2024-03-22T03:50:55;24.7;;;20.6;;
74741;SDS011;76291;48.288;16.314;2024-03-22T03:51:54;24.7;;;20.6;;
74741;SDS011;76291;48.288;16.314;2024-03-22T03:52:54;24.7;;;20.6;;
74741;SDS011;76291;48.288;16.314;2024-03-22T03:53:54;24.7;;;20.6;;
74741;SDS011;76291;48.288;16.314;2024-03-22T03:54:54;24.2;;;20.2;;
74741;SDS011;76291;48.288;16.314;2024-03-22T03:55:54;24.2;;;20.2;;
74741;SDS011;76291;48.288;16.314;2024-03-22T03:56:54;24.2;;;20.2;;
74741;SDS011;76291;48.288;16.314;2024-03-22T03:57:54;24.2;;;20.2;;
74741;SDS011;76291;48.288;16.314;2024-03-22T03:58:55;24.2;;;20.2;;
74741;SDS011;76291;48.288;16.314;2024-03-22T03:59:54;22.6;;;20.1;;
74741;SDS011;76291;48.288;16.314;2024-03-22T04:00:54;22.6;;;20.1;;
74741;SDS011;76291;48.288;16.314;2024-03-22T04:01:54;22.6;;;20.1;;
74741;SDS011;76291;48.288;16.314;2024-03-22T04:02:54;22.6;;;20.1;;
74741;SDS011;76291;48.288;16.314;2024-03-22T04:03:54;22.6;;;20.1;;
74741;SDS011;76291;48.288;16.314;2024-03-22T04:04:54;23.5;;;21.0;;
74741;SDS011;76291;48.288;16.314;2024-03-22T04:05:57;23.5;;;21.0;;
74741;SDS011;76291;48.288;16.314;2024-03-22T04:06:54;23.5;;;21.0;;
74741;SDS011;76291;48.288;16.314;2024-03-22T04:08:53;23.5;;;21.0;;
74741;SDS011;76291;48.288;16.314;2024-03-22T04:09:54;24.7;;;20.8;;
74741;SDS011;76291;48.288;16.314;2024-03-22T04:10:54;24.7;;;20.8;;
74741;SDS011;76291;48.288;16.314;2024-03-22T04:11:53;24.7;;;20.8;;
74741;SDS011;76291;48.288;16.314;2024-03-22T04:12:53;24.7;;;20.8;;
74741;SDS011;76291;48.288;16.314;2024-03-22T04:13:53;24.7;;;20.8;;
74741;SDS011;76291;48.288;16.314;2024-03-22T04:14:53;25.3;;;20.4;;
74741;SDS011;76291;48.288;16.314;2024-03-22T04:15:53;25.3;;;20.4;;
74741;SDS011;76291;48.288;16.314;2024-03-22T04:16:53;25.3;;;20.4;;
74741;SDS011;76291;48.288;16.314;2024-03-22T04:17:56;25.3;;;20.4;;
74741;SDS011;76291;48.288;16.314;2024-03-22T04:18:53;25.3;;;20.4;;
74741;SDS011;76291;48.288;16.314;2024-03-22T04:19:53;27.4;;;22.4;;
74741;SDS011;76291;48.288;16.314;2024-03-22T04:20:55;27.4;;;22.4;;
74741;SDS011;76291;48.288;16.314;2024-03-22T04:21:53;27.4;;;22.4;;
74741;SDS011;76291;48.288;16.314;2024-03-22T04:22:53;27.4;;;22.4;;
74741;SDS011;76291;48.288;16.314;2024-03-22T04:23:53;27.4;;;22.4;;
74741;SDS011;76291;48.288;16.314;2024-03-22T04:24:53;27.4;;;22.9;;
74741;SDS011;76291;48.288;16.314;2024-03-22T04:25:54;27.4;;;22.9;;
74741;SDS011;76291;48.288;16.314;2024-03-22T04:26:53;27.4;;;22.9;;
74741;SDS011;76291;48.288;16.314;2024-03-22T04:27:53;27.4;;;22.9;;
74741;SDS011;76291;48.288;16.314;2024-03-22T04:28:53;27.4;;;22.9;;
74741;SDS011;76291;48.288;16.314;2024-03-22T04:29:53;26.4;;;22.0;;
74741;SDS011;76291;48.288;16.314;2024-03-22T04:30:55;26.4;;;22.0;;
74741;SDS011;76291;48.288;16.314;2024-03-22T04:31:53;26.4;;;22.0;;
74741;SDS011;76291;48.288;16.314;2024-03-22T04:32:53;26.4;;;22.0;;
74741;SDS011;76291;48.288;16.314;2024-03-22T04:33:53;26.4;;;22.0;;
74741;SDS011;76291;48.288;16.314;2024-03-22T04:34:53;26.3;;;21.7;;
74741;SDS011;76291;48.288;16.314;2024-03-22T04:35:54;26.3;;;21.7;;
74741;SDS011;76291;48.288;16.314;2024-03-22T04:36:53;26.3;;;21.7;;
74741;SDS011;76291;48.288;16.314;2024-03-22T04:37:53;26.3;;;21.7;;
74741;SDS011;76291;48.288;16.314;2024-03-22T04:38:53;26.3;;;21.7;;
74741;SDS011;76291;48.288;16.314;2024-03-22T04:39:53;25.8;;;21.8;;
74741;SDS011;76291;48.288;16.314;2024-03-22T04:40:53;25.8;;;21.8;;
74741;SDS011;76291;48.288;16.314;2024-03-22T04:41:52;25.8;;;21.8;;
74741;SDS011;76291;48.288;16.314;2024-03-22T04:42:52;25.8;;;21.8;;
74741;SDS011;76291;48.288;16.314;2024-03-22T04:43:52;25.8;;;21.8;;
74741;SDS011;76291;48.288;16.314;2024-03-22T04:44:52;27.1;;;21.7;;
74741;SDS011;76291;48.288;16.314;2024-03-22T04:45:52;27.1;;;21.7;;
74741;SDS011;76291;48.288;16.314;2024-03-22T04:46:52;27.1;;;21.7;;
74741;SDS011;76291;48.288;16.314;2024-03-22T04:47:52;27.1;;;21.7;;
74741;SDS011;76291;48.288;16.314;2024-03-22T04:48:52;27.1;;;21.7;;
74741;SDS011;76291;48.288;16.314;2024-03-22T04:49:52;26.1;;;21.8;;
74741;SDS011;76291;48.288;16.314;2024-03-22T04:50:53;26.1;;;21.8;;
74741;SDS011;76291;48.288;16.314;2024-03-22T04:51:52;26.1;;;21.8;;
74741;SDS011;76291;48.288;16.314;2024-03-22T04:52:52;26.1;;;21.8;;
74741;SDS011;76291;48.288;16.314;2024-03-22T04:53:52;26.1;;;21.8;;
74741;SDS011;76291;48.288;16.314;2024-03-22T04:54:52;26.1;;;21.5;;
74741;SDS011;76291;48.288;16.314;2024-03-22T04:55:52;26.1;;;21.5;;
74741;SDS011;76291;48.288;16.314;2024-03-22T04:56:52;26.1;;;21.5;;
74741;SDS011;76291;48.288;16.314;2024-03-22T04:57:52;26.1;;;21.5;;
74741;SDS011;76291;48.288;16.314;2024-03-22T04:58:52;26.1;;;21.5;;
74741;SDS011;76291;48.288;16.314;2024-03-22T04:59:53;26.7;;;21.3;;
74741;SDS011;76291;48.288;16.314;2024-03-22T05:00:56;26.7;;;21.3;;
74741;SDS011;76291;48.288;16.314;2024-03-22T05:01:52;26.7;;;21.3;;
74741;SDS011;76291;48.288;16.314;2024-03-22T05:02:54;26.7;;;21.3;;
74741;SDS011;76291;48.288;16.314;2024-03-22T05:03:52;26.7;;;21.3;;
74741;SDS011;76291;48.288;16.314;2024-03-22T05:04:52;26.1;;;21.7;;
74741;SDS011;76291;48.288;16.314;2024-03-22T05:05:52;26.1;;;21.7;;
74741;SDS011;76291;48.288;16.314;2024-03-22T05:06:52;26.1;;;21.7;;
74741;SDS011;76291;48.288;16.314;2024-03-22T05:07:52;26.1;;;21.7;;
74741;SDS011;76291;48.288;16.314;2024-03-22T05:08:52;26.1;;;21.7;;
74741;SDS011;76291;48.288;16.314;2024-03-22T05:09:52;25.5;;;20.6;;
74741;SDS011;76291;48.288;16.314;2024-03-22T05:10:52;25.5;;;20.6;;
74741;SDS011;76291;48.288;16.314;2024-03-22T05:11:52;25.5;;;20.6;;
74741;SDS011;76291;48.288;16.314;2024-03-22T05:12:52;25.5;;;20.6;;
74741;SDS011;76291;48.288;16.314;2024-03-22T05:13:52;25.5;;;20.6;;
74741;SDS011;76291;48.288;16.314;2024-03-22T05:14:52;25.0;;;20.8;;
74741;SDS011;76291;48.288;16.314;2024-03-22T05:15:52;25.0;;;20.8;;
74741;SDS011;76291;48.288;16.314;2024-03-22T05:16:51;25.0;;;20.8;;
74741;SDS011;76291;48.288;16.314;2024-03-22T05:17:52;25.0;;;20.8;;
74741;SDS011;76291;48.288;16.314;2024-03-22T05:18:51;25.0;;;20.8;;
74741;SDS011;76291;48.288;16.314;2024-03-22T05:19:51;23.5;;;20.4;;
74741;SDS011;76291;48.288;16.314;2024-03-22T05:20:51;23.5;;;20.4;;
74741;SDS011;76291;48.288;16.314;2024-03-22T05:21:51;23.5;;;20.4;;
74741;SDS011;76291;48.288;16.314;2024-03-22T05:22:52;23.5;;;20.4;;
74741;SDS011;76291;48.288;16.314;2024-03-22T05:23:52;23.5;;;20.4;;
74741;SDS011;76291;48.288;16.314;2024-03-22T05:24:51;23.5;;;19.7;;
74741;SDS011;76291;48.288;16.314;2024-03-22T05:25:51;23.5;;;19.7;;
74741;SDS011;76291;48.288;16.314;2024-03-22T05:26:52;23.5;;;19.7;;
74741;SDS011;76291;48.288;16.314;2024-03-22T05:27:51;23.5;;;19.7;;
74741;SDS011;76291;48.288;16.314;2024-03-22T05:28:51;23.5;;;19.7;;
74741;SDS011;76291;48.288;16.314;2024-03-22T05:29:51;23.2;;;19.5;;
74741;SDS011;76291;48.288;16.314;2024-03-22T05:30:51;23.2;;;19.5;;
74741;SDS011;76291;48.288;16.314;2024-03-22T05:31:52;23.2;;;19.5;;
74741;SDS011;76291;48.288;16.314;2024-03-22T05:32:51;23.2;;;19.5;;
74741;SDS011;76291;48.288;16.314;2024-03-22T05:33:51;23.2;;;19.5;;
74741;SDS011;76291;48.288;16.314;2024-03-22T05:34:52;23.4;;;19.2;;
74741;SDS011;76291;48.288;16.314;2024-03-22T05:35:51;23.4;;;19.2;;
74741;SDS011;76291;48.288;16.314;2024-03-22T05:36:51;23.4;;;19.2;;
74741;SDS011;76291;48.288;16.314;2024-03-22T05:37:51;23.4;;;19.2;;
74741;SDS011;76291;48.288;16.314;2024-03-22T05:38:51;23.4;;;19.2;;
74741;SDS011;76291;48.288;16.314;2024-03-22T05:39:51;24.9;;;19.4;;
74741;SDS011;76291;48.288;16.314;2024-03-22T05:40:51;24.9;;;19.4;;
74741;SDS011;76291;48.288;16.314;2024-03-22T05:41:51;24.9;;;19.4;;
74741;SDS011;76291;48.288;16.314;2024-03-22T05:42:51;24.9;;;19.4;;
74741;SDS011;76291;48.288;16.314;2024-03-22T05:43:51;24.9;;;19.4;;
74741;SDS011;76291;48.288;16.314;2024-03-22T05:44:51;24.0;;;19.0;;
74741;SDS011;76291;48.288;16.314;2024-03-22T05:45:51;24.0;;;19.0;;
74741;SDS011;76291;48.288;16.314;2024-03-22T05:46:51;24.0;;;19.0;;
74741;SDS011;76291;48.288;16.314;2024-03-22T05:47:51;24.0;;;19.0;;
74741;SDS011;76291;48.288;16.314;2024-03-22T05:48:50;24.0;;;19.0;;
74741;SDS011;76291;48.288;16.314;2024-03-22T05:49:50;22.4;;;18.5;;
74741;SDS011;76291;48.288;16.314;2024-03-22T05:50:50;22.4;;;18.5;;
74741;SDS011;76291;48.288;16.314;2024-03-22T05:51:51;22.4;;;18.5;;
74741;SDS011;76291;48.288;16.314;2024-03-22T05:52:50;22.4;;;18.5;;
74741;SDS011;76291;48.288;16.314;2024-03-22T05:53:50;22.4;;;18.5;;
74741;SDS011;76291;48.288;16.314;2024-03-22T05:54:50;21.6;;;18.5;;
74741;SDS011;76291;48.288;16.314;2024-03-22T05:55:50;21.6;;;18.5;;
74741;SDS011;76291;48.288;16.314;2024-03-22T05:56:50;21.6;;;18.5;;